Saturday, February 28, 2015
12:25 UTC
  |  Log In   |  Register Free
Airport Search:

Vidalia Regional Airport
(KVDI)

Vidalia Regional Airport Diagram
No Airport Diagram Available

FAA data valid effective January 08, 2015 - March 05, 2015 (unless otherwise noted).

 
 
 
 
 
 
 
 
 
 
 
 
 
 

Current Aviation Weather for Vidalia Regional Airport (KVDI)

The most recent METAR observation for KVDI was updated at: 1216
METAR Summary (Translated METAR)
KVDI
281155Z AUTO 05007KT 10SM BKN050 OVC065 05/03 A3048 RMK AO2
KAZE
281155Z AUTO 04004KT 10SM BKN044 OVC049 07/03 A3046 RMK AO2 T00690034 10328 21054
(23.2 nm SW from KVDI)
KSBO
281155Z AUTO 05007KT 10SM OVC055 05/00 A3052 RMK AO2
(25 nm NE from KVDI)
TAF
No TAF information found within 50 nm of KVDI
  Airport Weather Conditions for KVDI

 Current Weather at VDI
41° F
Overcast
Northeast winds at 8.1 mph
VDI NOAA Radar

Pressure: 30.48 in
Humidity: 87%
Wind: Northeast at 8.1 MPH (7 KT)
Dew Point: 37.4°F
Visibility: 10.00 mi


Airport Weather Forecast for KVDI

Translated METAR and TAF for KVDI
Translated METAR for KVDI (1225 UTC 28 February 2015)
found at http://aviationweather.gov/adds/metars/
 
METAR text: KVDI 281215Z AUTO 05007KT 10SM BKN050 OVC065 06/03 A3049 RMK AO2
Conditions at: KVDI (VIDALIA MUNI , GA, US) observed 1215 UTC 28 February 2015
Temperature: 6.0°C (43°F)
Dewpoint: 3.0°C (37°F) [RH = 81%]
Pressure (altimeter): 30.49 inches Hg (1032.6 mb)
Winds: from the NE (50 degrees) at 8 MPH (7 knots; 3.6 m/s)
Visibility: 10 or more miles (16+ km)
Ceiling: 5000 feet AGL
Clouds: broken clouds at 5000 feet AGL
overcast cloud deck at 6500 feet AGL
Weather: automated observation with no human augmentation;
there may or may not be significant weather present at this time
Translated TAF for KVDI

There is no translated TAF available for this airport

Find All Airport Services Find A Hotel Find A Rental Car Find A Golf Course Find A Restaurant $100 Hamburger



FBO's on the Field
FBO Company Facility Photos Services Transportation Aviation Fuel Prices: Prices include tax
Catering Weather Repair Courtesy Rental Type 100LL JetA JetA+ MOGAS 8087
 
Vidalia Regional Airport

This FBO has not yet been rated
FS:Phillips 66
Last Updated: Feb-02
Login to update fuel prices
SS:
Contact Vidalia Regional AirportMore FBO Information
 
Add another FBO Facility Photos Catering Weather Repair Courtesy Rental Type 100LL JetA JetA+ MOGAS 8087
Services Transportation Aviation Fuel Prices: Prices include tax


model-print
model-print
model-print
model-print